createdAt,value
2023-02-15T00:00:13.291Z,75.90
2023-02-15T00:03:01.075Z,75.45
2023-02-15T00:05:31.407Z,76.48
2023-02-15T00:07:59.546Z,76.70
2023-02-15T00:10:27.560Z,76.34
2023-02-15T00:12:55.111Z,76.41
2023-02-15T00:15:24.077Z,76.70
2023-02-15T00:17:51.700Z,76.39
2023-02-15T00:20:20.099Z,77.17
2023-02-15T00:22:47.577Z,76.58
2023-02-15T00:25:15.600Z,76.65
2023-02-15T00:27:43.101Z,77.19
2023-02-15T00:30:11.670Z,77.57
2023-02-15T00:32:39.214Z,76.77
2023-02-15T00:35:07.985Z,76.48
2023-02-15T00:37:36.372Z,77.44
2023-02-15T00:40:05.860Z,77.96
2023-02-15T00:42:33.414Z,77.59
2023-02-15T00:45:01.831Z,77.01
2023-02-15T00:47:30.264Z,77.60
2023-02-15T00:49:58.072Z,76.97
2023-02-15T00:52:25.608Z,76.88
2023-02-15T00:54:53.373Z,76.13
2023-02-15T00:57:21.026Z,75.94
2023-02-15T00:59:48.859Z,75.52
2023-02-15T01:02:16.485Z,75.27
2023-02-15T01:04:44.594Z,75.64
2023-02-15T01:07:12.113Z,75.27
2023-02-15T01:09:40.008Z,75.40
2023-02-15T01:12:10.131Z,75.85
2023-02-15T01:14:39.099Z,75.64
2023-02-15T01:17:06.741Z,75.23
2023-02-15T01:19:36.874Z,75.04
2023-02-15T01:22:04.641Z,75.23
2023-02-15T01:24:36.564Z,75.38
2023-02-15T01:27:04.222Z,75.28
2023-02-15T01:29:32.189Z,75.15
2023-02-15T01:31:59.920Z,75.76
2023-02-15T01:34:27.770Z,76.10
2023-02-15T01:36:55.326Z,75.74
2023-02-15T01:39:23.447Z,75.47
2023-02-15T01:41:52.659Z,76.00
2023-02-15T01:44:58.860Z,74.78
2023-02-15T01:47:38.473Z,75.95
2023-02-15T01:50:17.301Z,76.13
2023-02-15T01:52:56.871Z,75.81
2023-02-15T01:55:31.451Z,75.44
2023-02-15T01:57:59.779Z,75.09
2023-02-15T02:00:27.846Z,75.09
2023-02-15T02:02:58.113Z,75.55
2023-02-15T02:05:27.262Z,75.56
2023-02-15T02:07:59.611Z,75.51
2023-02-15T02:10:28.154Z,75.82
2023-02-15T02:13:03.991Z,75.84
2023-02-15T02:16:07.569Z,75.22
2023-02-15T02:19:11.491Z,75.77
2023-02-15T02:22:23.654Z,75.87
2023-02-15T02:24:59.320Z,75.78
2023-02-15T02:28:17.161Z,75.00
2023-02-15T02:31:19.558Z,75.65
2023-02-15T02:34:01.814Z,75.82
2023-02-15T02:36:59.294Z,75.41
2023-02-15T02:39:48.310Z,75.69
2023-02-15T02:42:27.217Z,75.12
2023-02-15T02:45:17.737Z,74.67
2023-02-15T02:47:50.104Z,75.15
2023-02-15T02:50:27.849Z,74.65
2023-02-15T02:52:58.287Z,74.54
2023-02-15T02:55:50.232Z,74.60
2023-02-15T02:58:39.238Z,74.88
2023-02-15T03:01:21.147Z,75.32
2023-02-15T03:03:57.094Z,75.76
2023-02-15T03:06:50.066Z,75.67
2023-02-15T03:09:45.773Z,74.63
2023-02-15T03:12:21.551Z,75.00
2023-02-15T03:15:01.059Z,74.94
2023-02-15T03:17:30.705Z,75.29
2023-02-15T03:20:12.086Z,75.82
2023-02-15T03:23:16.621Z,75.97
2023-02-15T03:26:00.720Z,76.17
2023-02-15T03:28:46.775Z,75.85
2023-02-15T03:31:16.299Z,76.33
2023-02-15T03:33:51.594Z,76.12
2023-02-15T03:36:43.643Z,76.38
2023-02-15T03:39:37.468Z,76.29
2023-02-15T03:42:34.516Z,76.47
2023-02-15T03:45:11.002Z,76.38
2023-02-15T03:47:48.331Z,76.42
2023-02-15T03:50:44.615Z,76.23
2023-02-15T03:53:16.468Z,75.97
2023-02-15T03:55:48.997Z,76.37
2023-02-15T03:58:35.146Z,76.53
2023-02-15T04:01:58.988Z,76.59
2023-02-15T04:04:35.771Z,76.51
2023-02-15T04:07:07.806Z,76.77
2023-02-15T04:09:54.100Z,77.14
2023-02-15T04:12:22.267Z,76.94
2023-02-15T04:15:08.459Z,76.68
2023-02-15T04:17:38.858Z,76.74
2023-02-15T04:20:26.124Z,76.68
2023-02-15T04:23:12.237Z,76.81
2023-02-15T04:25:39.833Z,77.34
2023-02-15T04:28:08.813Z,76.97
2023-02-15T04:30:36.541Z,77.01
2023-02-15T04:33:04.451Z,77.32
2023-02-15T04:35:32.870Z,77.45
2023-02-15T04:38:01.111Z,77.77
2023-02-15T04:40:28.706Z,77.25
2023-02-15T04:42:56.602Z,77.22
2023-02-15T04:45:24.125Z,77.61
2023-02-15T04:47:52.044Z,77.83
2023-02-15T04:50:19.955Z,77.68
2023-02-15T04:52:47.929Z,77.52
2023-02-15T04:55:15.649Z,77.33
2023-02-15T04:57:43.525Z,76.73
2023-02-15T05:00:11.836Z,76.98
2023-02-15T05:02:39.819Z,77.34
2023-02-15T05:05:08.309Z,77.81
2023-02-15T05:07:36.211Z,77.10
2023-02-15T05:10:04.023Z,77.21
2023-02-15T05:12:32.210Z,77.48
2023-02-15T05:14:59.725Z,77.42
2023-02-15T05:17:27.535Z,77.35
2023-02-15T05:19:55.080Z,76.81
2023-02-15T05:22:22.961Z,76.98
2023-02-15T05:25:09.148Z,77.32
2023-02-15T05:27:55.856Z,77.37
2023-02-15T05:30:23.490Z,78.10
2023-02-15T05:32:51.424Z,78.28
2023-02-15T05:35:19.491Z,78.54
2023-02-15T05:37:47.480Z,78.77
2023-02-15T05:40:15.069Z,78.80
2023-02-15T05:42:42.965Z,78.27
2023-02-15T05:45:10.966Z,78.19
2023-02-15T05:47:38.745Z,78.14
2023-02-15T05:50:07.350Z,78.10
2023-02-15T05:52:35.925Z,77.98
2023-02-15T05:55:04.587Z,78.19
2023-02-15T05:57:33.054Z,78.63
2023-02-15T06:00:00.703Z,78.88
2023-02-15T06:02:28.555Z,78.99
2023-02-15T06:04:56.173Z,78.68
2023-02-15T06:07:24.016Z,78.40
2023-02-15T06:09:51.580Z,78.16
2023-02-15T06:12:19.868Z,77.54
2023-02-15T06:14:47.390Z,77.60
2023-02-15T06:17:15.598Z,77.94
2023-02-15T06:19:43.893Z,77.42
2023-02-15T06:22:11.961Z,77.83
2023-02-15T06:24:39.498Z,77.56
2023-02-15T06:27:07.422Z,77.69
2023-02-15T06:29:35.249Z,78.03
2023-02-15T06:32:04.506Z,77.84
2023-02-15T06:34:32.123Z,78.09
2023-02-15T06:37:00.242Z,77.67
2023-02-15T06:39:27.683Z,77.36
2023-02-15T06:41:56.477Z,77.08
2023-02-15T06:44:24.254Z,76.93
2023-02-15T06:46:52.191Z,76.83
2023-02-15T06:49:19.710Z,76.52
2023-02-15T06:51:47.492Z,76.27
2023-02-15T06:54:15.042Z,75.97
2023-02-15T06:56:44.599Z,75.78
2023-02-15T06:59:12.426Z,76.29
2023-02-15T07:01:40.642Z,75.92
2023-02-15T07:04:08.363Z,76.06
2023-02-15T07:06:37.017Z,75.54
2023-02-15T07:09:05.325Z,75.78
2023-02-15T07:11:52.039Z,74.31
2023-02-15T07:14:19.742Z,73.18
2023-02-15T07:16:47.576Z,72.31
2023-02-15T07:19:15.145Z,71.88
2023-02-15T07:21:43.231Z,71.89
2023-02-15T07:24:10.748Z,72.07
2023-02-15T07:26:38.708Z,71.50
2023-02-15T07:29:06.458Z,71.28
2023-02-15T07:31:34.276Z,71.19
2023-02-15T07:34:02.216Z,70.97
2023-02-15T07:36:30.090Z,69.99
2023-02-15T07:38:57.711Z,70.21
2023-02-15T07:41:25.687Z,69.79
2023-02-15T07:43:53.284Z,69.84
2023-02-15T07:46:21.986Z,69.38
2023-02-15T07:48:49.921Z,68.66
2023-02-15T07:51:17.868Z,68.79
2023-02-15T07:53:45.604Z,68.85
2023-02-15T07:56:15.699Z,68.84
2023-02-15T07:58:53.159Z,67.26
2023-02-15T08:01:31.012Z,67.12
2023-02-15T08:03:59.465Z,66.98
2023-02-15T08:06:31.254Z,66.51
2023-02-15T08:08:59.158Z,66.00
2023-02-15T08:11:33.938Z,65.61
2023-02-15T08:14:15.003Z,65.95
2023-02-15T08:17:00.508Z,64.28
2023-02-15T08:19:31.008Z,64.88
2023-02-15T08:22:01.218Z,65.05
2023-02-15T08:24:32.359Z,64.12
2023-02-15T08:27:00.520Z,63.28
2023-02-15T08:29:29.978Z,63.33
2023-02-15T08:32:06.204Z,64.18
2023-02-15T08:34:41.579Z,63.47
2023-02-15T08:37:10.444Z,62.10
2023-02-15T08:39:38.134Z,61.87
2023-02-15T08:42:06.118Z,62.67
2023-02-15T08:44:33.577Z,63.00
2023-02-15T08:47:04.832Z,62.69
2023-02-15T08:49:33.304Z,62.69
2023-02-15T08:52:01.703Z,63.02
2023-02-15T08:54:29.292Z,62.46
2023-02-15T08:56:57.284Z,61.82
2023-02-15T08:59:27.849Z,62.26
2023-02-15T09:01:56.584Z,62.63
2023-02-15T09:04:24.480Z,61.53
2023-02-15T09:06:53.281Z,62.45
2023-02-15T09:09:21.408Z,62.06
2023-02-15T09:11:57.856Z,61.47
2023-02-15T09:14:28.104Z,61.27
2023-02-15T09:16:56.733Z,59.93
2023-02-15T09:19:25.218Z,59.96
2023-02-15T09:21:52.935Z,59.75
2023-02-15T09:24:20.993Z,59.09
2023-02-15T09:26:49.741Z,60.69
2023-02-15T09:29:19.383Z,61.20
2023-02-15T09:31:50.009Z,61.46
2023-02-15T09:34:22.005Z,60.41
2023-02-15T09:36:50.819Z,61.65
2023-02-15T09:39:29.043Z,59.45
2023-02-15T09:42:32.680Z,59.04
2023-02-15T09:45:56.902Z,58.88
2023-02-15T09:48:41.285Z,58.56
2023-02-15T09:52:06.639Z,56.13
2023-02-15T09:55:04.009Z,57.73
2023-02-15T09:57:48.283Z,56.77
2023-02-15T10:00:35.564Z,55.91
2023-02-15T10:03:28.046Z,55.55
2023-02-15T10:06:34.828Z,55.23
2023-02-15T10:09:37.913Z,53.51
2023-02-15T10:12:36.949Z,53.63
2023-02-15T10:18:56.685Z,53.33
2023-02-15T10:25:16.711Z,52.65
2023-02-15T10:27:50.659Z,53.56
2023-02-15T10:31:04.362Z,54.47
2023-02-15T10:33:41.575Z,53.59
2023-02-15T10:36:40.264Z,53.09
2023-02-15T10:39:42.666Z,53.51
2023-02-15T10:42:49.212Z,53.67
2023-02-15T10:45:51.019Z,54.19
2023-02-15T10:48:53.343Z,53.74
2023-02-15T10:51:44.963Z,54.07
2023-02-15T10:54:30.630Z,53.72
2023-02-15T10:57:16.612Z,51.97
2023-02-15T11:00:15.104Z,52.58
2023-02-15T11:03:32.246Z,52.77
2023-02-15T11:06:12.808Z,51.46
2023-02-15T11:08:50.994Z,52.47
2023-02-15T11:11:30.615Z,52.23
2023-02-15T11:14:55.149Z,50.70
2023-02-15T11:17:45.236Z,50.74
2023-02-15T11:20:35.468Z,50.46
2023-02-15T11:23:03.715Z,51.53
2023-02-15T11:25:36.570Z,51.28
2023-02-15T11:28:14.554Z,50.57
2023-02-15T11:30:53.166Z,50.37
2023-02-15T11:33:36.207Z,50.71
2023-02-15T11:36:18.845Z,49.73
2023-02-15T11:38:50.364Z,49.48
2023-02-15T11:41:28.417Z,48.85
2023-02-15T11:44:17.631Z,48.15
2023-02-15T11:46:45.698Z,47.60
2023-02-15T11:49:40.220Z,47.38
2023-02-15T11:52:19.588Z,46.35
2023-02-15T11:54:51.544Z,46.26
2023-02-15T11:57:41.481Z,45.46
2023-02-15T12:00:57.158Z,44.70
2023-02-15T12:03:47.574Z,45.13
2023-02-15T12:06:39.762Z,45.59
2023-02-15T12:09:46.739Z,45.27
2023-02-15T12:12:33.421Z,45.06
2023-02-15T12:15:05.489Z,43.72
2023-02-15T12:17:55.969Z,44.57
2023-02-15T12:20:33.117Z,43.42
2023-02-15T12:23:05.504Z,43.54
2023-02-15T12:25:44.751Z,42.23
2023-02-15T12:28:45.431Z,42.45
2023-02-15T12:31:47.646Z,42.88
2023-02-15T12:34:32.187Z,42.61
2023-02-15T12:37:10.417Z,42.28
2023-02-15T12:39:39.446Z,42.16
2023-02-15T12:42:18.462Z,41.33
2023-02-15T12:45:20.392Z,40.23
2023-02-15T12:48:08.544Z,40.15
2023-02-15T12:50:36.360Z,40.45
2023-02-15T12:53:35.594Z,40.79
2023-02-15T12:56:11.370Z,41.05
2023-02-15T12:58:43.130Z,40.27
2023-02-15T13:01:13.762Z,39.19
2023-02-15T13:04:08.290Z,38.99
2023-02-15T13:06:37.931Z,39.08
2023-02-15T13:09:32.267Z,37.97
2023-02-15T13:12:34.719Z,37.65
2023-02-15T13:15:04.227Z,36.72
2023-02-15T13:17:35.264Z,36.95
2023-02-15T13:20:17.610Z,36.26
2023-02-15T13:22:49.061Z,35.46
2023-02-15T13:25:26.287Z,34.68
2023-02-15T13:28:01.582Z,35.10
2023-02-15T13:30:47.451Z,35.41
2023-02-15T13:33:27.378Z,35.23
2023-02-15T13:36:19.032Z,34.67
2023-02-15T13:39:00.421Z,34.16
2023-02-15T13:41:37.646Z,34.29
2023-02-15T13:44:29.967Z,33.86
2023-02-15T13:47:09.793Z,33.19
2023-02-15T13:50:24.937Z,32.62
2023-02-15T13:53:08.374Z,33.00
2023-02-15T13:55:57.000Z,33.31
2023-02-15T13:58:56.896Z,33.12
2023-02-15T14:01:59.585Z,33.23
2023-02-15T14:04:49.217Z,32.87
2023-02-15T14:07:22.542Z,32.23
2023-02-15T14:10:12.054Z,32.39
2023-02-15T14:13:02.886Z,31.82
2023-02-15T14:16:06.932Z,31.75
2023-02-15T14:19:21.770Z,31.69
2023-02-15T14:22:10.335Z,31.77
2023-02-15T14:24:56.273Z,31.43
2023-02-15T14:27:44.458Z,30.78
2023-02-15T14:30:37.601Z,31.07
2023-02-15T14:33:46.736Z,31.64
2023-02-15T14:36:20.528Z,31.58
2023-02-15T14:39:35.049Z,31.04
2023-02-15T14:42:43.932Z,30.96
2023-02-15T14:45:43.907Z,30.84
2023-02-15T14:48:23.206Z,31.16
2023-02-15T14:50:51.132Z,30.61
2023-02-15T14:53:24.204Z,30.65
2023-02-15T14:56:14.747Z,30.85
2023-02-15T14:58:51.212Z,30.84
2023-02-15T15:01:35.162Z,30.88
2023-02-15T15:04:35.634Z,31.29
2023-02-15T15:07:08.674Z,31.70
2023-02-15T15:09:41.658Z,32.16
2023-02-15T15:12:27.109Z,32.69
2023-02-15T15:14:55.897Z,33.06
2023-02-15T15:17:38.795Z,33.55
2023-02-15T15:20:14.722Z,33.94
2023-02-15T15:22:44.695Z,35.50
2023-02-15T15:25:42.132Z,36.96
2023-02-15T15:28:10.171Z,37.64
2023-02-15T15:30:37.592Z,39.51
2023-02-15T15:34:11.819Z,40.59
2023-02-15T15:37:07.548Z,41.87
2023-02-15T15:40:09.140Z,43.14
2023-02-15T15:42:58.501Z,44.80
2023-02-15T15:46:21.946Z,45.29
2023-02-15T15:48:49.984Z,46.14
2023-02-15T15:51:44.968Z,47.15
2023-02-15T15:54:26.139Z,47.81
2023-02-15T15:57:05.015Z,48.40
2023-02-15T15:59:35.373Z,49.12
2023-02-15T16:02:08.837Z,49.84
2023-02-15T16:04:36.775Z,50.29
2023-02-15T16:07:19.755Z,50.93
2023-02-15T16:10:05.733Z,51.08
2023-02-15T16:12:37.267Z,51.35
2023-02-15T16:15:20.547Z,51.46
2023-02-15T16:17:56.049Z,52.01
2023-02-15T16:20:35.420Z,52.32
2023-02-15T16:23:35.818Z,53.15
2023-02-15T16:27:19.728Z,54.14
2023-02-15T16:29:47.557Z,54.69
2023-02-15T16:32:29.293Z,55.45
2023-02-15T16:35:03.670Z,55.37
2023-02-15T16:37:36.512Z,55.96
2023-02-15T16:40:04.980Z,56.49
2023-02-15T16:42:32.470Z,56.82
2023-02-15T16:45:17.556Z,57.38
2023-02-15T16:47:54.186Z,56.81
2023-02-15T16:50:35.592Z,57.17
2023-02-15T16:53:06.472Z,58.04
2023-02-15T16:55:42.120Z,58.40
2023-02-15T16:58:16.857Z,58.27
2023-02-15T17:00:45.235Z,59.28
2023-02-15T17:03:15.501Z,59.42
2023-02-15T17:05:51.171Z,59.64
2023-02-15T17:08:29.553Z,59.54
2023-02-15T17:11:00.755Z,59.69
2023-02-15T17:13:30.022Z,60.01
2023-02-15T17:16:01.088Z,60.38
2023-02-15T17:18:44.889Z,60.58
2023-02-15T17:21:25.318Z,60.84
2023-02-15T17:24:05.134Z,61.13
2023-02-15T17:26:36.992Z,61.58
2023-02-15T17:29:52.964Z,61.87
2023-02-15T17:32:25.784Z,61.60
2023-02-15T17:35:29.203Z,62.28
2023-02-15T17:38:20.356Z,62.33
2023-02-15T17:40:48.427Z,62.59
2023-02-15T17:43:16.194Z,62.06
2023-02-15T17:45:50.447Z,62.69
2023-02-15T17:48:40.636Z,62.52
2023-02-15T17:51:13.769Z,63.72
2023-02-15T17:54:06.827Z,62.53
2023-02-15T17:56:36.137Z,63.53
2023-02-15T17:59:07.803Z,63.71
2023-02-15T18:02:01.135Z,63.55
2023-02-15T18:04:47.846Z,63.46
2023-02-15T18:07:36.046Z,63.97
2023-02-15T18:10:37.098Z,63.68
2023-02-15T18:13:04.851Z,64.37
2023-02-15T18:15:32.993Z,64.36
2023-02-15T18:18:00.719Z,63.99
2023-02-15T18:20:37.030Z,63.99
2023-02-15T18:23:04.750Z,64.61
2023-02-15T18:25:32.651Z,64.61
2023-02-15T18:28:00.221Z,64.79
2023-02-15T18:30:28.313Z,64.53
2023-02-15T18:32:58.492Z,64.16
2023-02-15T18:35:33.520Z,64.77
2023-02-15T18:38:02.199Z,64.61
2023-02-15T18:40:30.778Z,63.95
2023-02-15T18:42:58.374Z,63.92
2023-02-15T18:45:32.911Z,64.03
2023-02-15T18:48:00.729Z,64.47
2023-02-15T18:50:37.774Z,64.63
2023-02-15T18:53:13.641Z,64.22
2023-02-15T18:55:41.625Z,64.08
2023-02-15T18:58:19.837Z,64.08
2023-02-15T19:00:49.966Z,64.10
2023-02-15T19:03:19.003Z,64.53
2023-02-15T19:05:47.727Z,64.44
2023-02-15T19:08:24.740Z,63.88
2023-02-15T19:10:52.883Z,64.28
2023-02-15T19:13:20.440Z,64.73
2023-02-15T19:15:48.265Z,63.62
2023-02-15T19:18:17.023Z,63.46
2023-02-15T19:20:46.886Z,63.57
2023-02-15T19:23:24.846Z,63.38
2023-02-15T19:25:53.880Z,63.81
2023-02-15T19:28:34.287Z,63.19
2023-02-15T19:31:02.202Z,63.18
2023-02-15T19:33:29.902Z,63.81
2023-02-15T19:35:57.943Z,63.00
2023-02-15T19:38:36.623Z,63.19
2023-02-15T19:41:16.896Z,63.35
2023-02-15T19:43:55.666Z,63.30
2023-02-15T19:46:24.355Z,62.77
2023-02-15T19:48:53.545Z,63.38
2023-02-15T19:51:23.282Z,63.18
2023-02-15T19:53:51.782Z,62.95
2023-02-15T19:56:24.512Z,62.89
2023-02-15T19:58:52.295Z,63.11
2023-02-15T20:01:20.241Z,62.74
2023-02-15T20:03:47.943Z,63.19
2023-02-15T20:06:16.835Z,63.67
2023-02-15T20:08:45.546Z,62.96
2023-02-15T20:11:14.461Z,62.77
2023-02-15T20:13:42.192Z,63.07
2023-02-15T20:16:10.175Z,63.20
2023-02-15T20:18:37.794Z,63.40
2023-02-15T20:21:09.407Z,63.78
2023-02-15T20:23:37.629Z,64.09
2023-02-15T20:26:18.539Z,63.90
2023-02-15T20:28:47.343Z,63.37
2023-02-15T20:31:17.578Z,63.32
2023-02-15T20:33:45.852Z,63.54
2023-02-15T20:36:19.247Z,63.78
2023-02-15T20:38:47.221Z,64.26
2023-02-15T20:41:39.142Z,64.01
2023-02-15T20:44:15.685Z,64.11
2023-02-15T20:46:43.785Z,64.51
2023-02-15T20:49:11.769Z,63.87
2023-02-15T20:51:41.705Z,64.44
2023-02-15T20:54:16.318Z,64.21
2023-02-15T20:56:45.990Z,64.36
2023-02-15T20:59:24.350Z,64.33
2023-02-15T21:01:59.075Z,64.69
2023-02-15T21:04:34.383Z,64.45
2023-02-15T21:07:02.570Z,64.31
2023-02-15T21:09:30.305Z,65.04
2023-02-15T21:12:00.103Z,65.15
2023-02-15T21:14:28.419Z,64.86
2023-02-15T21:16:56.213Z,64.75
2023-02-15T21:19:24.810Z,64.91
2023-02-15T21:21:53.778Z,65.07
2023-02-15T21:24:28.531Z,64.84
2023-02-15T21:27:02.989Z,64.87
2023-02-15T21:29:31.614Z,64.79
2023-02-15T21:32:00.518Z,65.12
2023-02-15T21:34:28.123Z,64.95
2023-02-15T21:36:56.212Z,65.17
2023-02-15T21:39:29.929Z,65.08
2023-02-15T21:42:16.923Z,64.58
2023-02-15T21:45:02.755Z,65.13
2023-02-15T21:47:50.645Z,65.04
2023-02-15T21:50:43.182Z,65.33
2023-02-15T21:53:24.548Z,65.14
2023-02-15T21:55:57.378Z,65.54
2023-02-15T21:58:29.154Z,65.45
2023-02-15T22:00:59.322Z,65.13
2023-02-15T22:03:39.787Z,65.11
2023-02-15T22:06:13.625Z,65.16
2023-02-15T22:08:41.664Z,65.20
2023-02-15T22:11:16.261Z,65.49
2023-02-15T22:13:45.587Z,65.79
2023-02-15T22:16:17.742Z,65.52
2023-02-15T22:18:46.430Z,65.74
2023-02-15T22:21:16.651Z,65.42
2023-02-15T22:23:44.653Z,65.22
2023-02-15T22:26:24.139Z,65.36
2023-02-15T22:28:52.297Z,65.52
2023-02-15T22:31:23.150Z,65.49
2023-02-15T22:33:51.835Z,65.42
2023-02-15T22:36:28.804Z,65.67
2023-02-15T22:38:57.837Z,66.02
2023-02-15T22:41:30.234Z,65.58
2023-02-15T22:43:58.888Z,65.30
2023-02-15T22:46:27.133Z,65.67
2023-02-15T22:48:55.252Z,64.97
2023-02-15T22:51:25.053Z,65.54
2023-02-15T22:53:53.887Z,65.43
2023-02-15T22:56:53.198Z,65.74
2023-02-15T22:59:28.929Z,66.10
2023-02-15T23:01:57.679Z,65.61
2023-02-15T23:04:28.659Z,66.00
2023-02-15T23:06:59.507Z,65.59
2023-02-15T23:09:27.428Z,65.60
2023-02-15T23:11:55.059Z,66.13
2023-02-15T23:14:32.734Z,65.62
2023-02-15T23:17:00.443Z,65.16
2023-02-15T23:19:29.224Z,65.97
2023-02-15T23:21:56.991Z,65.87
2023-02-15T23:24:29.882Z,65.32
2023-02-15T23:27:18.072Z,66.22
2023-02-15T23:29:47.655Z,65.61
2023-02-15T23:32:15.657Z,66.22
2023-02-15T23:34:43.913Z,65.56
2023-02-15T23:37:14.723Z,66.24
2023-02-15T23:40:01.620Z,66.31
2023-02-15T23:42:33.282Z,66.22
2023-02-15T23:45:02.595Z,66.55
2023-02-15T23:47:54.076Z,66.06
2023-02-15T23:50:30.421Z,65.94
2023-02-15T23:52:59.667Z,64.98
2023-02-15T23:55:38.787Z,65.09
2023-02-15T23:58:14.480Z,65.83
